Time;durP1;ratioP1;P1;durP2;ratioP2;P2;SDS_P1;SDS_P2;PMS_P1;PMS_P2;Temp;Humidity;BMP_temperature;BMP_pressure;BME280_temperature;BME280_humidity;BME280_pressure;Samples;Min_cycle;Max_cycle;Signal;HPM_P1;HPM_P2
2021/12/29 00:01:23;;;;;;;;;;;;;;;-1.66;84.53;99248.45;1690106;83;21200;-79
2021/12/29 00:03:49;;;;;;;;;;;;;;;-1.72;84.56;99240.27;1688657;83;20146;-80
2021/12/29 00:06:15;;;;;;;;;;;;;;;-1.66;84.67;99248.93;1698903;83;20187;-80
2021/12/29 00:08:40;;;;;;;;;;;;;;;-1.70;84.97;99256.52;1693902;83;20452;-76
2021/12/29 00:11:06;;;;;;;;;;;;;;;-1.67;84.67;99249.38;1683477;83;20167;-79
2021/12/29 00:13:32;;;;;;;;;;;;;;;-1.68;84.74;99253.36;1692296;83;21123;-77
2021/12/29 00:15:57;;;;;;;;;;;;;;;-1.69;84.86;99260.78;1682124;83;20310;-78
2021/12/29 00:18:27;;;;;;;;;;;;;;;-1.69;84.73;99262.07;1676997;83;20805;-79
2021/12/29 00:20:53;;;;;;;;;;;;;;;-1.79;85.19;99263.59;1691086;83;20636;-79
2021/12/29 00:23:19;;;;;;;;;;;;;;;-1.70;84.71;99262.98;1681149;83;20182;-78
2021/12/29 00:25:45;;;;;;;;;;;;;;;-1.55;84.38;99260.70;1700964;83;21195;-80
2021/12/29 00:28:10;;;;;;;;;;;;;;;-1.60;84.09;99254.15;1684616;83;20146;-78
2021/12/29 00:30:36;;;;;;;;;;;;;;;-1.59;83.86;99254.05;1683015;83;20250;-77
2021/12/29 00:33:02;;;;;;;;;;;;;;;-1.65;84.01;99252.71;1688017;83;20362;-78
2021/12/29 00:35:29;;;;;;;;;;;;;;;-1.64;84.14;99258.70;1683764;83;20204;-82
2021/12/29 00:37:55;;;;;;;;;;;;;;;-1.64;84.13;99256.12;1703739;83;22422;-79
2021/12/29 00:40:20;;;;;;;;;;;;;;;-1.61;83.91;99253.33;1683001;83;20477;-82
2021/12/29 00:42:46;;;;;;;;;;;;;;;-1.60;83.92;99253.70;1703492;83;20169;-79
2021/12/29 00:45:11;;;;;;;;;;;;;;;-1.61;83.71;99251.22;1697665;83;20196;-77
2021/12/29 00:47:38;;;;;;;;;;;;;;;-1.62;83.91;99254.25;1692856;83;20764;-79
2021/12/29 00:50:07;;;;;;;;;;;;;;;-1.64;84.12;99252.23;1695430;83;21114;-79
2021/12/29 00:52:32;;;;;;;;;;;;;;;-1.60;83.88;99258.03;1697251;83;20187;-79
2021/12/29 00:55:00;;;;;;;;;;;;;;;-1.59;84.07;99261.81;1692421;83;21305;-78
2021/12/29 00:57:26;;;;;;;;;;;;;;;-1.48;83.90;99255.45;1697075;83;20317;-80
2021/12/29 00:59:51;;;;;;;;;;;;;;;-1.46;83.88;99257.50;1694649;83;20270;-77
2021/12/29 01:02:17;;;;;;;;;;;;;;;-1.41;83.61;99254.60;1694842;83;21048;-78
2021/12/29 01:04:43;;;;;;;;;;;;;;;-1.39;83.40;99254.50;1692052;83;20168;-77
2021/12/29 01:07:08;;;;;;;;;;;;;;;-1.36;83.19;99264.66;1697892;83;20216;-77
2021/12/29 01:09:34;;;;;;;;;;;;;;;-1.43;83.23;99264.22;1695080;83;20442;-77
2021/12/29 01:12:00;;;;;;;;;;;;;;;-1.32;83.29;99268.68;1681767;83;20204;-78
2021/12/29 01:14:26;;;;;;;;;;;;;;;-1.34;83.01;99272.67;1699439;83;21047;-78
2021/12/29 01:16:53;;;;;;;;;;;;;;;-1.25;82.68;99277.71;1692093;82;20435;-79
2021/12/29 01:19:23;;;;;;;;;;;;;;;-1.19;82.68;99279.89;1689341;83;20294;-77
2021/12/29 01:21:50;;;;;;;;;;;;;;;-1.19;82.45;99276.01;1690007;83;20493;-77
2021/12/29 01:24:16;;;;;;;;;;;;;;;-1.28;82.34;99277.92;1689487;83;20152;-78
2021/12/29 01:26:43;;;;;;;;;;;;;;;-1.19;82.39;99277.30;1696820;82;20870;-78
2021/12/29 01:29:11;;;;;;;;;;;;;;;-1.22;82.27;99277.51;1684448;83;20230;-77
2021/12/29 01:31:37;;;;;;;;;;;;;;;-1.25;82.23;99280.30;1694143;83;20557;-78
2021/12/29 01:34:04;;;;;;;;;;;;;;;-1.30;82.47;99277.20;1694507;82;20215;-77
2021/12/29 01:36:34;;;;;;;;;;;;;;;-1.21;82.36;99274.00;1684898;83;20195;-78
2021/12/29 01:39:00;;;;;;;;;;;;;;;-1.36;82.74;99278.91;1682737;83;21159;-77
2021/12/29 01:41:25;;;;;;;;;;;;;;;-1.33;82.76;99276.92;1690043;82;20227;-78
2021/12/29 01:43:51;;;;;;;;;;;;;;;-1.29;82.66;99276.25;1684924;83;20164;-77
2021/12/29 01:46:17;;;;;;;;;;;;;;;-1.22;82.50;99275.39;1690463;82;20123;-80
2021/12/29 01:48:43;;;;;;;;;;;;;;;-1.17;82.51;99278.50;1685117;83;20228;-79
2021/12/29 01:51:08;;;;;;;;;;;;;;;-1.18;82.54;99271.20;1696961;83;22303;-77
2021/12/29 01:53:35;;;;;;;;;;;;;;;-1.22;82.59;99276.69;1687148;83;20186;-79
2021/12/29 01:56:01;;;;;;;;;;;;;;;-1.20;82.54;99270.45;1704452;83;20211;-78
2021/12/29 01:58:27;;;;;;;;;;;;;;;-1.22;82.77;99274.92;1692988;83;20235;-77
2021/12/29 02:00:53;;;;;;;;;;;;;;;-1.20;82.64;99283.41;1699910;83;20183;-77
2021/12/29 02:03:19;;;;;;;;;;;;;;;-1.15;82.44;99280.06;1695018;83;21017;-78
2021/12/29 02:05:44;;;;;;;;;;;;;;;-1.23;82.64;99281.02;1689840;83;20326;-77
2021/12/29 02:08:11;;;;;;;;;;;;;;;-1.17;82.57;99272.84;1699276;83;20698;-76
2021/12/29 02:10:46;;;;;;;;;;;;;;;-1.19;82.77;99277.30;1687003;83;20103;-77
2021/12/29 02:13:11;;;;;;;;;;;;;;;-1.22;82.82;99280.09;1696089;83;20137;-77
2021/12/29 02:15:37;;;;;;;;;;;;;;;-1.22;82.88;99276.21;1692183;82;21062;-81
2021/12/29 02:18:11;;;;;;;;;;;;;;;-1.19;82.85;99276.01;1694557;83;21048;-79
2021/12/29 02:20:31;;;;;;;;;;;;;;;-1.10;82.56;99272.80;1686431;83;20668;-77
2021/12/29 02:23:18;;;;;;;;;;;;;;;-1.16;82.82;99269.33;1691680;83;20428;-76
2021/12/29 02:25:50;;;;;;;;;;;;;;;-1.21;82.83;99258.90;1691133;83;20951;-77
2021/12/29 02:28:18;;;;;;;;;;;;;;;-1.23;82.98;99255.59;1691729;83;21680;-77
2021/12/29 02:30:44;;;;;;;;;;;;;;;-1.26;83.11;99255.32;1698118;83;20161;-81
2021/12/29 02:33:13;;;;;;;;;;;;;;;-1.25;83.36;99252.28;1699632;82;20898;-77
2021/12/29 02:35:37;;;;;;;;;;;;;;;-1.26;83.27;99248.84;1714434;82;20152;-80
2021/12/29 02:38:07;;;;;;;;;;;;;;;-1.25;83.27;99249.22;1691284;83;20835;-77
2021/12/29 02:40:31;;;;;;;;;;;;;;;-1.27;83.39;99256.27;1705092;82;20089;-78
2021/12/29 02:42:57;;;;;;;;;;;;;;;-1.19;83.20;99255.28;1704613;83;20231;-77
2021/12/29 02:45:26;;;;;;;;;;;;;;;-1.20;83.40;99256.20;1705892;83;20136;-76
2021/12/29 02:47:50;;;;;;;;;;;;;;;-1.31;83.75;99251.75;1707920;83;20253;-77
2021/12/29 02:50:17;;;;;;;;;;;;;;;-1.26;83.76;99250.14;1705744;83;20157;-77
2021/12/29 02:52:45;;;;;;;;;;;;;;;-1.21;83.91;99250.69;1710910;83;21157;-77
2021/12/29 02:55:11;;;;;;;;;;;;;;;-1.25;83.92;99254.41;1704674;83;20200;-77
2021/12/29 02:57:37;;;;;;;;;;;;;;;-1.13;83.60;99253.58;1710539;83;20129;-78
2021/12/29 03:00:04;;;;;;;;;;;;;;;-1.11;83.45;99242.63;1709231;83;20655;-79
2021/12/29 03:02:29;;;;;;;;;;;;;;;-1.08;83.24;99251.97;1713336;83;20198;-77
2021/12/29 03:04:58;;;;;;;;;;;;;;;-1.03;83.22;99245.17;1714937;82;21076;-77
2021/12/29 03:07:24;;;;;;;;;;;;;;;-1.06;82.95;99257.05;1715466;83;20154;-78
2021/12/29 03:09:49;;;;;;;;;;;;;;;-1.00;83.11;99250.97;1707984;83;20148;-80
2021/12/29 03:12:15;;;;;;;;;;;;;;;-0.99;82.99;99249.23;1709591;83;20225;-78
2021/12/29 03:14:55;;;;;;;;;;;;;;;-1.03;82.92;99250.36;1705394;83;20156;-77
2021/12/29 03:17:21;;;;;;;;;;;;;;;-1.04;83.04;99246.10;1705846;83;21127;-81
2021/12/29 03:19:47;;;;;;;;;;;;;;;-0.98;82.96;99241.35;1711949;82;20505;-78
2021/12/29 03:22:12;;;;;;;;;;;;;;;-1.08;82.71;99233.83;1708478;83;20173;-79
2021/12/29 03:24:38;;;;;;;;;;;;;;;-1.01;82.90;99231.20;1711657;83;20466;-77
2021/12/29 03:27:04;;;;;;;;;;;;;;;-1.12;83.07;99232.38;1713521;83;20136;-77
2021/12/29 03:29:29;;;;;;;;;;;;;;;-0.98;82.86;99232.73;1721572;83;21119;-77
2021/12/29 03:31:57;;;;;;;;;;;;;;;-1.04;82.87;99237.03;1718035;83;20195;-77
2021/12/29 03:34:22;;;;;;;;;;;;;;;-1.02;82.89;99233.89;1717934;83;20147;-77
2021/12/29 03:36:48;;;;;;;;;;;;;;;-1.03;82.89;99236.11;1716736;82;20445;-77
2021/12/29 03:39:14;;;;;;;;;;;;;;;-1.07;82.96;99241.13;1720890;83;20731;-77
2021/12/29 03:41:39;;;;;;;;;;;;;;;-1.04;82.98;99242.22;1717134;83;21008;-80
2021/12/29 03:44:05;;;;;;;;;;;;;;;-1.05;83.04;99247.05;1719840;83;20648;-79
2021/12/29 03:46:33;;;;;;;;;;;;;;;-1.12;83.14;99247.47;1722202;83;20489;-79
2021/12/29 03:48:58;;;;;;;;;;;;;;;-1.18;83.57;99256.95;1719347;83;20498;-79
2021/12/29 03:51:24;;;;;;;;;;;;;;;-1.11;83.38;99248.29;1721220;83;20175;-78
2021/12/29 03:53:50;;;;;;;;;;;;;;;-1.14;83.54;99251.91;1717440;83;20731;-79
2021/12/29 03:56:16;;;;;;;;;;;;;;;-1.09;83.37;99251.15;1719271;82;20297;-76
2021/12/29 03:58:44;;;;;;;;;;;;;;;-1.13;83.45;99256.17;1719994;83;20217;-76
2021/12/29 04:01:10;;;;;;;;;;;;;;;-1.05;83.38;99256.94;1716979;83;20512;-78
2021/12/29 04:03:36;;;;;;;;;;;;;;;-1.06;83.28;99255.75;1720739;83;20184;-78
2021/12/29 04:06:01;;;;;;;;;;;;;;;-1.09;83.36;99259.37;1714363;83;21150;-78
2021/12/29 04:08:27;;;;;;;;;;;;;;;-1.07;83.72;99254.08;1716780;83;20734;-76
2021/12/29 04:10:53;;;;;;;;;;;;;;;-1.04;83.34;99253.87;1719937;83;20125;-76
2021/12/29 04:13:18;;;;;;;;;;;;;;;-0.95;83.23;99251.95;1715607;83;20219;-78
2021/12/29 04:15:44;;;;;;;;;;;;;;;-0.97;83.16;99251.24;1718094;83;20633;-78
2021/12/29 04:18:25;;;;;;;;;;;;;;;-0.98;83.03;99249.57;1706525;83;21376;-76
2021/12/29 04:20:57;;;;;;;;;;;;;;;-0.93;83.00;99249.62;1697469;83;20168;-77
2021/12/29 04:23:24;;;;;;;;;;;;;;;-0.95;82.81;99248.06;1711059;83;20517;-77
2021/12/29 04:25:53;;;;;;;;;;;;;;;-0.97;83.08;99248.65;1703832;83;20660;-77
2021/12/29 04:28:20;;;;;;;;;;;;;;;-0.96;83.12;99246.43;1696931;83;20517;-76
2021/12/29 04:30:46;;;;;;;;;;;;;;;-0.99;83.29;99249.23;1698972;83;20188;-78
2021/12/29 04:33:11;;;;;;;;;;;;;;;-1.01;83.23;99249.78;1691688;83;20158;-77
2021/12/29 04:35:37;;;;;;;;;;;;;;;-1.03;83.32;99247.30;1689541;83;20469;-76
2021/12/29 04:38:03;;;;;;;;;;;;;;;-0.99;83.19;99249.23;1706976;82;20199;-76
2021/12/29 04:40:28;;;;;;;;;;;;;;;-0.97;83.12;99244.77;1710004;82;20180;-78
2021/12/29 04:42:54;;;;;;;;;;;;;;;-0.91;83.22;99239.16;1700561;82;21155;-79
2021/12/29 04:45:19;;;;;;;;;;;;;;;-0.92;83.03;99237.05;1699383;82;21021;-80
2021/12/29 04:47:47;;;;;;;;;;;;;;;-0.85;83.03;99235.33;1696963;83;20364;-82
2021/12/29 04:50:27;;;;;;;;;;;;;;;-0.83;83.04;99235.56;1692654;83;20172;-79
2021/12/29 04:52:57;;;;;;;;;;;;;;;-0.83;82.72;99234.27;1694783;83;20133;-79
2021/12/29 04:55:22;;;;;;;;;;;;;;;-0.74;82.63;99232.33;1688840;83;21179;-80
2021/12/29 04:57:48;;;;;;;;;;;;;;;-0.68;82.45;99236.72;1699005;83;20299;-78
2021/12/29 05:00:15;;;;;;;;;;;;;;;-0.73;82.16;99232.70;1690242;83;20152;-79
2021/12/29 05:02:41;;;;;;;;;;;;;;;-0.81;82.45;99224.64;1689260;83;20984;-78
2021/12/29 05:05:19;;;;;;;;;;;;;;;-0.89;82.48;99234.69;1695647;83;20220;-78
2021/12/29 05:10:17;;;;;;;;;;;;;;;-0.88;82.51;99231.17;1640202;86;20541;-79
2021/12/29 05:12:45;;;;;;;;;;;;;;;-0.95;82.78;99232.52;1672047;84;20146;-79
2021/12/29 05:15:10;;;;;;;;;;;;;;;-1.03;83.13;99230.45;1677228;84;20270;-77
2021/12/29 05:17:36;;;;;;;;;;;;;;;-1.05;83.35;99234.10;1685606;83;20259;-79
2021/12/29 05:20:01;;;;;;;;;;;;;;;-1.00;83.12;99232.02;1701339;83;21071;-78
2021/12/29 05:22:27;;;;;;;;;;;;;;;-1.01;83.09;99236.38;1695334;83;20372;-79
2021/12/29 05:24:53;;;;;;;;;;;;;;;-1.05;83.14;99238.80;1690153;83;20299;-77
2021/12/29 05:27:18;;;;;;;;;;;;;;;-1.14;83.35;99233.77;1691696;83;20168;-78
2021/12/29 05:29:44;;;;;;;;;;;;;;;-1.12;83.45;99240.14;1680421;83;20176;-80
2021/12/29 05:32:09;;;;;;;;;;;;;;;-1.24;83.78;99247.00;1692325;83;21176;-79
2021/12/29 05:34:36;;;;;;;;;;;;;;;-1.28;83.93;99242.95;1685473;83;20140;-78
2021/12/29 05:37:02;;;;;;;;;;;;;;;-1.29;84.11;99251.20;1689208;83;20201;-78
2021/12/29 05:39:27;;;;;;;;;;;;;;;-1.18;84.00;99260.84;1701735;83;20179;-80
2021/12/29 05:41:53;;;;;;;;;;;;;;;-1.16;83.83;99253.78;1687397;83;20537;-78
2021/12/29 05:44:18;;;;;;;;;;;;;;;-1.27;84.01;99247.21;1689167;83;21205;-77
2021/12/29 05:46:44;;;;;;;;;;;;;;;-1.22;83.77;99250.78;1691318;83;20210;-78
2021/12/29 05:49:10;;;;;;;;;;;;;;;-1.22;84.02;99247.72;1692812;83;20183;-79
2021/12/29 05:51:36;;;;;;;;;;;;;;;-1.24;84.06;99253.48;1681382;83;20204;-78
2021/12/29 05:54:02;;;;;;;;;;;;;;;-1.26;84.12;99250.14;1685691;83;20176;-77
2021/12/29 05:56:27;;;;;;;;;;;;;;;-1.23;84.13;99253.82;1693081;83;21348;-77
2021/12/29 05:58:53;;;;;;;;;;;;;;;-1.29;84.37;99249.91;1690901;83;20188;-80
2021/12/29 06:01:19;;;;;;;;;;;;;;;-1.28;84.25;99263.67;1693203;83;20215;-77
2021/12/29 06:03:44;;;;;;;;;;;;;;;-1.19;84.10;99268.72;1692367;83;20604;-76
2021/12/29 06:06:10;;;;;;;;;;;;;;;-1.18;84.05;99266.02;1693174;83;20187;-76
2021/12/29 06:08:35;;;;;;;;;;;;;;;-1.20;83.93;99265.27;1689353;83;21145;-78
2021/12/29 06:11:01;;;;;;;;;;;;;;;-1.17;83.93;99261.18;1679398;83;20183;-79
2021/12/29 06:13:27;;;;;;;;;;;;;;;-1.22;83.99;99265.85;1689224;83;20509;-78
2021/12/29 06:15:52;;;;;;;;;;;;;;;-1.18;84.15;99271.20;1693488;83;20185;-78
2021/12/29 06:18:18;;;;;;;;;;;;;;;-1.09;83.92;99269.28;1689933;83;20163;-78
2021/12/29 06:20:44;;;;;;;;;;;;;;;-1.11;83.70;99272.42;1691841;83;21269;-78
2021/12/29 06:23:12;;;;;;;;;;;;;;;-1.24;84.17;99269.02;1687643;83;20201;-76
2021/12/29 06:25:37;;;;;;;;;;;;;;;-1.20;84.13;99270.93;1694864;83;20224;-78
2021/12/29 06:28:03;;;;;;;;;;;;;;;-1.18;84.17;99284.16;1666705;83;21202;-77
2021/12/29 06:30:29;;;;;;;;;;;;;;;-1.15;84.14;99289.12;1675185;84;20224;-80
2021/12/29 06:32:54;;;;;;;;;;;;;;;-1.03;83.88;99294.41;1663760;85;21096;-78
2021/12/29 06:35:20;;;;;;;;;;;;;;;-1.02;83.74;99298.67;1670630;85;20146;-76
2021/12/29 06:37:46;;;;;;;;;;;;;;;-1.01;83.75;99303.75;1677595;84;20708;-78
2021/12/29 06:40:12;;;;;;;;;;;;;;;-1.23;84.76;99306.92;1663087;85;20165;-82
2021/12/29 06:42:37;;;;;;;;;;;;;;;-1.16;84.58;99296.53;1679081;85;20160;-80
2021/12/29 06:45:04;;;;;;;;;;;;;;;-1.10;84.45;99303.07;1661815;85;21084;-78
2021/12/29 06:47:29;;;;;;;;;;;;;;;-1.09;84.37;99301.67;1662278;85;20609;-77
2021/12/29 06:49:55;;;;;;;;;;;;;;;-0.88;83.70;99302.45;1668280;85;20551;-80
2021/12/29 06:52:21;;;;;;;;;;;;;;;-0.83;83.21;99306.84;1662368;85;20332;-77
2021/12/29 06:54:46;;;;;;;;;;;;;;;-0.89;83.67;99302.07;1662561;85;20165;-81
2021/12/29 06:57:12;;;;;;;;;;;;;;;-0.90;83.50;99310.80;1678158;85;21100;-81
2021/12/29 06:59:38;;;;;;;;;;;;;;;-0.81;83.43;99312.77;1671111;84;20154;-80
2021/12/29 07:02:03;;;;;;;;;;;;;;;-0.77;83.24;99311.61;1675445;85;20475;-77
2021/12/29 07:04:29;;;;;;;;;;;;;;;-0.79;83.16;99317.38;1658508;85;20165;-78
2021/12/29 07:06:55;;;;;;;;;;;;;;;-0.82;83.08;99316.77;1664311;85;20515;-76
2021/12/29 07:09:20;;;;;;;;;;;;;;;-0.80;83.22;99317.48;1672369;85;21101;-78
2021/12/29 07:11:46;;;;;;;;;;;;;;;-0.76;83.04;99321.05;1622337;85;20310;-77
2021/12/29 07:14:12;;;;;;;;;;;;;;;-0.83;83.23;99317.21;1670910;85;21010;-78
2021/12/29 07:16:38;;;;;;;;;;;;;;;-0.77;83.27;99323.27;1657476;84;20164;-79
2021/12/29 07:19:05;;;;;;;;;;;;;;;-0.80;83.28;99326.55;1661634;85;20198;-77
2021/12/29 07:21:30;;;;;;;;;;;;;;;-1.01;84.03;99328.81;1671959;84;21256;-77
2021/12/29 07:23:57;;;;;;;;;;;;;;;-1.04;84.07;99325.13;1664288;85;20244;-81
2021/12/29 07:26:22;;;;;;;;;;;;;;;-1.06;84.71;99324.41;1668781;85;20494;-78
2021/12/29 07:28:48;;;;;;;;;;;;;;;-1.10;84.83;99328.98;1680609;84;20191;-77
2021/12/29 07:31:14;;;;;;;;;;;;;;;-0.89;84.48;99329.77;1683409;84;20238;-80
2021/12/29 07:33:40;;;;;;;;;;;;;;;-0.99;84.67;99328.27;1686452;85;21104;-77
2021/12/29 07:36:05;;;;;;;;;;;;;;;-1.06;84.88;99325.70;1682256;84;20171;-79
2021/12/29 07:38:31;;;;;;;;;;;;;;;-1.08;85.49;99332.29;1683457;84;21412;-79
2021/12/29 07:40:56;;;;;;;;;;;;;;;-1.04;85.08;99331.61;1682517;84;20128;-80
2021/12/29 07:43:22;;;;;;;;;;;;;;;-1.16;85.57;99330.20;1678415;85;20562;-78
2021/12/29 07:45:48;;;;;;;;;;;;;;;-1.04;85.29;99332.45;1678076;85;21198;-78
2021/12/29 07:48:16;;;;;;;;;;;;;;;-1.02;85.27;99328.47;1680688;85;20187;-78
2021/12/29 07:50:41;;;;;;;;;;;;;;;-1.05;85.44;99324.78;1683288;84;20199;-79
2021/12/29 07:53:06;;;;;;;;;;;;;;;-1.04;85.82;99321.24;1680179;84;20127;-77
2021/12/29 07:55:32;;;;;;;;;;;;;;;-0.96;85.71;99329.36;1674262;83;20179;-78
2021/12/29 07:57:58;;;;;;;;;;;;;;;-0.89;85.36;99317.63;1674930;85;20743;-78
2021/12/29 08:00:23;;;;;;;;;;;;;;;-0.94;85.43;99319.70;1686475;83;20156;-79
2021/12/29 08:02:50;;;;;;;;;;;;;;;-1.06;85.93;99316.16;1685357;85;20214;-80
2021/12/29 08:05:16;;;;;;;;;;;;;;;-0.99;85.87;99316.61;1683634;85;20235;-82
2021/12/29 08:07:42;;;;;;;;;;;;;;;-1.00;85.97;99320.12;1675157;85;20141;-82
2021/12/29 08:10:08;;;;;;;;;;;;;;;-0.99;86.03;99319.19;1675124;85;20946;-80
2021/12/29 08:12:33;;;;;;;;;;;;;;;-0.90;85.95;99315.98;1679257;84;20208;-80
2021/12/29 08:14:59;;;;;;;;;;;;;;;-0.97;86.12;99322.50;1672064;85;20175;-79
2021/12/29 08:17:25;;;;;;;;;;;;;;;-1.02;86.28;99322.81;1677323;85;20207;-77
2021/12/29 08:19:51;;;;;;;;;;;;;;;-0.93;85.99;99323.97;1681701;84;20202;-77
2021/12/29 08:22:17;;;;;;;;;;;;;;;-0.91;86.07;99319.50;1681037;85;21261;-78
2021/12/29 08:24:43;;;;;;;;;;;;;;;-1.01;86.37;99326.22;1678280;84;20152;-80
2021/12/29 08:27:10;;;;;;;;;;;;;;;-1.05;86.58;99327.38;1689984;83;20268;-78
2021/12/29 08:29:35;;;;;;;;;;;;;;;-1.01;86.71;99330.11;1707046;83;20192;-78
2021/12/29 08:32:02;;;;;;;;;;;;;;;-0.94;86.75;99331.37;1703187;83;20780;-77
2021/12/29 08:34:28;;;;;;;;;;;;;;;-0.85;86.56;99330.75;1710040;83;21120;-77
2021/12/29 08:36:54;;;;;;;;;;;;;;;-0.73;86.17;99336.40;1705116;83;20332;-76
2021/12/29 08:39:19;;;;;;;;;;;;;;;-0.70;85.92;99337.11;1702870;83;20195;-77
2021/12/29 08:41:46;;;;;;;;;;;;;;;-0.65;85.95;99338.92;1692173;83;20127;-78
2021/12/29 08:44:12;;;;;;;;;;;;;;;-0.56;85.57;99335.25;1697832;83;20189;-77
2021/12/29 08:46:38;;;;;;;;;;;;;;;-0.67;85.66;99330.42;1700565;83;20705;-77
2021/12/29 08:49:03;;;;;;;;;;;;;;;-0.57;85.63;99324.98;1693319;83;21098;-78
2021/12/29 08:51:29;;;;;;;;;;;;;;;-0.60;85.34;99328.61;1704436;83;20221;-78
2021/12/29 08:53:56;;;;;;;;;;;;;;;-0.65;85.52;99335.03;1703354;83;20472;-80
2021/12/29 08:56:22;;;;;;;;;;;;;;;-0.48;85.27;99337.31;1693395;83;20237;-79
2021/12/29 08:58:47;;;;;;;;;;;;;;;-0.46;84.79;99340.63;1688469;83;21100;-79
2021/12/29 09:01:13;;;;;;;;;;;;;;;-0.42;84.57;99339.48;1695998;83;20239;-82
2021/12/29 09:03:41;;;;;;;;;;;;;;;-0.38;84.47;99338.80;1702618;83;20176;-80
2021/12/29 09:06:06;;;;;;;;;;;;;;;-0.41;84.54;99333.34;1705121;83;20833;-79
2021/12/29 09:08:32;;;;;;;;;;;;;;;-0.42;84.49;99334.30;1694252;83;20465;-79
2021/12/29 09:10:57;;;;;;;;;;;;;;;-0.35;84.50;99339.06;1693405;83;21014;-79
2021/12/29 09:13:23;;;;;;;;;;;;;;;-0.39;84.89;99337.98;1703457;83;20612;-80
2021/12/29 09:15:49;;;;;;;;;;;;;;;-0.35;84.64;99349.44;1706416;83;20176;-79
2021/12/29 09:18:16;;;;;;;;;;;;;;;-0.28;84.50;99348.06;1699525;83;20200;-79
2021/12/29 09:20:45;;;;;;;;;;;;;;;-0.29;84.48;99351.13;1693127;83;20521;-79
2021/12/29 09:23:09;;;;;;;;;;;;;;;-0.32;84.68;99357.01;1691937;83;20540;-79
2021/12/29 09:25:36;;;;;;;;;;;;;;;-0.26;84.70;99359.18;1701048;83;20147;-80
2021/12/29 09:28:02;;;;;;;;;;;;;;;-0.25;84.42;99356.92;1696389;83;20200;-80
2021/12/29 09:30:29;;;;;;;;;;;;;;;-0.24;84.14;99362.48;1664836;85;20469;-79
2021/12/29 09:32:55;;;;;;;;;;;;;;;-0.39;84.81;99352.69;1676188;85;20160;-79
2021/12/29 09:35:21;;;;;;;;;;;;;;;-0.34;84.84;99353.67;1675621;85;20538;-77
2021/12/29 09:37:47;;;;;;;;;;;;;;;-0.20;84.40;99348.38;1657816;85;20210;-79
2021/12/29 09:40:13;;;;;;;;;;;;;;;-0.15;84.19;99351.95;1662122;85;20167;-80
2021/12/29 09:42:39;;;;;;;;;;;;;;;-0.17;84.10;99350.76;1668255;85;20170;-81
2021/12/29 09:45:05;;;;;;;;;;;;;;;-0.08;84.05;99350.11;1684338;85;20476;-80
2021/12/29 09:47:32;;;;;;;;;;;;;;;-0.27;84.43;99347.13;1686390;85;21870;-80
2021/12/29 09:49:57;;;;;;;;;;;;;;;-0.26;84.44;99346.20;1663517;85;20532;-79
2021/12/29 09:52:23;;;;;;;;;;;;;;;-0.27;84.60;99338.87;1667209;85;20464;-79
2021/12/29 09:54:49;;;;;;;;;;;;;;;-0.24;84.72;99345.63;1680191;85;20111;-81
2021/12/29 09:57:14;;;;;;;;;;;;;;;-0.16;84.68;99340.72;1684735;84;20237;-80
2021/12/29 09:59:40;;;;;;;;;;;;;;;-0.15;84.49;99341.56;1666929;85;21262;-80
2021/12/29 10:02:06;;;;;;;;;;;;;;;-0.08;84.21;99339.73;1673115;85;20539;-79
2021/12/29 10:04:34;;;;;;;;;;;;;;;-0.12;84.27;99333.09;1678071;85;20174;-80
2021/12/29 10:07:17;;;;;;;;;;;;;;;-0.19;84.55;99326.66;1678272;85;20273;-78
2021/12/29 10:09:43;;;;;;;;;;;;;;;-0.10;84.37;99329.91;1671166;85;20203;-78
2021/12/29 10:12:10;;;;;;;;;;;;;;;-0.19;84.41;99330.55;1681036;85;21086;-78
2021/12/29 10:14:36;;;;;;;;;;;;;;;-0.22;84.68;99324.28;1667633;85;20161;-78
2021/12/29 10:17:01;;;;;;;;;;;;;;;-0.18;84.50;99330.92;1679612;85;20170;-78
2021/12/29 10:19:27;;;;;;;;;;;;;;;-0.19;84.51;99338.34;1633852;85;20172;-78
2021/12/29 10:21:52;;;;;;;;;;;;;;;-0.17;84.66;99332.59;1635683;85;20461;-78
2021/12/29 10:24:19;;;;;;;;;;;;;;;-0.15;84.65;99337.67;1669617;85;21251;-81
2021/12/29 10:26:47;;;;;;;;;;;;;;;-0.12;84.73;99330.97;1667709;85;20211;-77
2021/12/29 10:29:16;;;;;;;;;;;;;;;-0.24;84.71;99332.17;1691457;83;20105;-77
2021/12/29 10:31:54;;;;;;;;;;;;;;;-0.12;84.50;99340.88;1695041;83;37820;-78
2021/12/29 10:34:26;;;;;;;;;;;;;;;-0.05;84.40;99336.92;1691663;83;20143;-78
2021/12/29 10:36:54;;;;;;;;;;;;;;;0.06;84.26;99337.91;1684038;83;21306;-78
2021/12/29 10:39:23;;;;;;;;;;;;;;;0.03;84.22;99333.75;1667122;83;20141;-78
2021/12/29 10:42:02;;;;;;;;;;;;;;;0.06;84.27;99340.50;1695917;83;20136;-77
2021/12/29 10:44:34;;;;;;;;;;;;;;;0.06;84.19;99337.42;1683046;83;20176;-79
2021/12/29 10:47:01;;;;;;;;;;;;;;;0.12;83.95;99336.98;1692786;83;20153;-80
2021/12/29 10:49:27;;;;;;;;;;;;;;;0.20;83.91;99332.55;1702678;83;21053;-77
2021/12/29 10:51:55;;;;;;;;;;;;;;;0.28;83.70;99327.66;1697024;83;20148;-80
2021/12/29 10:54:24;;;;;;;;;;;;;;;0.32;83.46;99331.67;1691153;83;20245;-79
2021/12/29 10:57:01;;;;;;;;;;;;;;;0.38;83.40;99329.59;1677567;83;20466;-82
2021/12/29 10:59:30;;;;;;;;;;;;;;;0.41;83.11;99326.77;1693492;83;20213;-80
2021/12/29 11:01:54;;;;;;;;;;;;;;;0.33;82.77;99329.44;1655207;83;20185;-77
2021/12/29 11:04:20;;;;;;;;;;;;;;;0.40;83.08;99327.70;1700436;83;20192;-79
2021/12/29 11:06:46;;;;;;;;;;;;;;;0.42;82.77;99332.30;1690820;83;20269;-78
2021/12/29 11:09:13;;;;;;;;;;;;;;;0.38;82.73;99332.19;1690857;83;20601;-78
2021/12/29 11:11:41;;;;;;;;;;;;;;;0.24;82.71;99328.80;1693359;83;20211;-77
2021/12/29 11:14:13;;;;;;;;;;;;;;;0.28;82.85;99325.51;1687682;83;21081;-80
2021/12/29 11:16:39;;;;;;;;;;;;;;;0.31;82.96;99326.58;1685172;83;20195;-79
2021/12/29 11:19:06;;;;;;;;;;;;;;;0.32;83.03;99330.84;1687503;83;20310;-79
2021/12/29 11:21:34;;;;;;;;;;;;;;;0.28;82.93;99326.36;1693418;83;20176;-78
2021/12/29 11:24:17;;;;;;;;;;;;;;;0.28;83.16;99326.36;1689431;83;20514;-77
2021/12/29 11:26:43;;;;;;;;;;;;;;;0.23;83.41;99331.03;1678051;83;21095;-75
2021/12/29 11:29:12;;;;;;;;;;;;;;;0.32;83.19;99330.37;1678939;83;20566;-78
2021/12/29 11:31:47;;;;;;;;;;;;;;;0.39;83.14;99336.41;1684137;83;20183;-77
2021/12/29 11:34:14;;;;;;;;;;;;;;;0.34;83.07;99332.41;1674534;83;20248;-77
2021/12/29 11:36:40;;;;;;;;;;;;;;;0.39;83.19;99322.13;1679667;83;20204;-77
2021/12/29 11:39:06;;;;;;;;;;;;;;;0.49;82.98;99324.43;1684897;83;21204;-79
2021/12/29 11:41:31;;;;;;;;;;;;;;;0.44;82.98;99321.35;1681032;83;20196;-76
2021/12/29 11:43:57;;;;;;;;;;;;;;;0.47;82.95;99318.53;1693657;83;20666;-77
2021/12/29 11:46:24;;;;;;;;;;;;;;;0.44;83.01;99325.25;1689871;83;20252;-77
2021/12/29 11:48:51;;;;;;;;;;;;;;;0.41;83.23;99322.87;1697345;83;20213;-77
2021/12/29 11:51:17;;;;;;;;;;;;;;;0.43;83.38;99323.09;1680455;83;20981;-77
2021/12/29 11:53:55;;;;;;;;;;;;;;;0.46;83.43;99327.25;1694889;83;20450;-78
2021/12/29 11:56:21;;;;;;;;;;;;;;;0.34;83.65;99328.52;1687577;83;20494;-80
2021/12/29 11:58:48;;;;;;;;;;;;;;;0.41;83.60;99329.36;1672672;83;20169;-77
2021/12/29 12:01:19;;;;;;;;;;;;;;;0.41;83.73;99332.78;1679276;83;20576;-80
2021/12/29 12:03:53;;;;;;;;;;;;;;;0.44;83.72;99333.04;1687880;83;21125;-78
2021/12/29 12:06:38;;;;;;;;;;;;;;;0.42;83.79;99334.89;1687692;83;20141;-77
2021/12/29 12:09:13;;;;;;;;;;;;;;;0.47;83.78;99331.52;1678409;83;20159;-78
2021/12/29 12:11:50;;;;;;;;;;;;;;;0.49;84.03;99333.05;1682249;83;20173;-77
2021/12/29 12:14:22;;;;;;;;;;;;;;;0.57;83.73;99338.98;1683077;83;20260;-80
2021/12/29 12:17:03;;;;;;;;;;;;;;;0.53;83.89;99337.56;1686811;83;21019;-78
2021/12/29 12:19:30;;;;;;;;;;;;;;;0.50;84.17;99338.61;1680128;83;20204;-76
2021/12/29 12:22:18;;;;;;;;;;;;;;;0.58;84.03;99342.42;1674745;83;20607;-76
2021/12/29 12:24:54;;;;;;;;;;;;;;;0.63;84.04;99340.30;1679668;83;20180;-78
2021/12/29 12:27:38;;;;;;;;;;;;;;;0.67;83.92;99341.27;1688551;83;20184;-77
2021/12/29 12:30:13;;;;;;;;;;;;;;;0.67;84.03;99347.77;1671648;83;22610;-78
2021/12/29 12:32:48;;;;;;;;;;;;;;;0.60;84.43;99351.73;1678891;85;20221;-77
2021/12/29 12:35:34;;;;;;;;;;;;;;;0.54;84.74;99348.30;1672008;85;20196;-77
2021/12/29 12:38:03;;;;;;;;;;;;;;;0.56;84.82;99349.03;1651901;85;20191;-77
2021/12/29 12:40:30;;;;;;;;;;;;;;;0.58;84.95;99346.32;1665597;85;20183;-77
2021/12/29 12:43:10;;;;;;;;;;;;;;;0.63;85.06;99341.12;1676837;83;21046;-77
2021/12/29 12:45:36;;;;;;;;;;;;;;;0.65;84.97;99344.45;1676532;84;20955;-78
2021/12/29 12:48:05;;;;;;;;;;;;;;;0.65;85.19;99350.11;1671954;85;20158;-80
2021/12/29 12:50:30;;;;;;;;;;;;;;;0.70;85.44;99344.94;1674117;85;20342;-77